Gainsborough, United Kingdom
Current Conditions -  °F | °C
As of 8:50 AM on Thursday 27 Nov 2014 (Local Time) from EGXP Reporting Station
Moderate Fog Moderate Fog  
Wind Chill:   Ceiling: Unl
Heat Index:   Visibility: 0.18mi
Dew Point:   Wind: 3mph
Humidity: 100%   Direction: 110°ESE
Pressure: 29.62"   Gusts: NA
Location:  53.38°N, 0.77°W
Report Text: EGXP 270850Z 11003KT 0300 FG VV/// 08/08 Q1003 RED
Loading
Personal Weather Stations






























Interactive Weather Map New forecast layout! Learn more

10-Day Weather Forecast

Advertisements
Track Severe Weather on mobile